Time Latitude Longitude Accuracy (66% radius in meters) Altitude (meters) Speed (km/hour) Bearing (degrees) Battery (%) GPS flag
07:13:33 57.203675 60.118504 6.0679998397827 324 3.5299999713898 116.69999694824 82 1 delete
07:13:28 57.203782 60.118239 6.0679998397827 326 3.8599998950958 121.09999847412 82 1 delete
07:13:25 57.203836 60.118064 6.0679998397827 327 3.960000038147 93.900001525879 82 1 delete
07:13:22 57.203840 60.117865 6.0679998397827 328 4.0300002098083 73.900001525879 82 1 delete
07:13:19 57.203798 60.117682 4.5509996414185 328 4.4400000572205 67.300003051758 82 1 delete
07:13:16 57.203740 60.117487 6.0679998397827 328 4.4499998092651 59.799999237061 82 1 delete
07:13:12 57.203716 60.117293 4.5509996414185 332 3.8699998855591 76.099998474121 82 1 delete
07:13:09 57.203674 60.117110 7.585000038147 331 4.039999961853 73.699996948242 82 1 delete
07:13:06 57.203640 60.116914 7.585000038147 330 4.6900000572205 102.69999694824 82 1 delete
07:13:01 57.203626 60.116560 7.585000038147 320 3.8599998950958 91.400001525879 82 1 delete
07:12:58 57.203631 60.116381 7.585000038147 321 3.75 96.400001525879 82 1 delete
07:12:55 57.203636 60.116185 6.0679998397827 320 3.4900000095367 74 82 1 delete
07:12:52 57.203579 60.116026 4.5509996414185 318 4.4699997901917 44.700000762939 82 1 delete
07:12:49 57.203495 60.115894 6.0679998397827 318 5.4499998092651 41.400001525879 82 1 delete
07:12:47 57.203434 60.115766 6.0679998397827 317 6.1700000762939 33.900001525879 82 1 delete
07:12:45 57.203342 60.115662 4.5509996414185 319 5.6799998283386 40.700000762939 82 1 delete
07:12:43 57.203257 60.115535 6.0679998397827 318 5.0599999427795 43.900001525879 82 1 delete
07:12:41 57.203162 60.115362 4.5509996414185 313 4.9800000190735 60.700000762939 82 1 delete
07:12:38 57.203109 60.115188 4.5509996414185 313 3.25 65.599998474121 82 1 delete
07:12:32 57.203104 60.114987 4.5509996414185 311 1.6200000047684 154.5 82 1 delete
07:12:28 57.203195 60.114939 4.5509996414185 310 2.4200000762939 158.80000305176 82 1 delete
07:12:19 57.203333 60.114685 4.5509996414185 312 2.7599999904633 91.699996948242 82 1 delete
07:12:07 57.203423 60.114450 4.5509996414185 308 1.0800000429153 233.19999694824 82 1 delete
07:11:57 57.203508 60.114773 4.5509996414185 308 1.789999961853 138 82 1 delete
07:11:40 57.203682 60.114634 7.585000038147 305 2.3199999332428 207.39999389648 82 1 delete
07:11:34 57.203781 60.114635 6.0679998397827 305 1.5199999809265 165.69999694824 82 1 delete
07:11:27 57.203877 60.114602 6.0679998397827 306 2.7599999904633 158.5 82 1 delete
07:11:23 57.203971 60.114512 7.585000038147 306 2.1400001049042 207.10000610352 82 1 delete
07:11:18 57.204043 60.114627 7.585000038147 305 2.960000038147 230.30000305176 82 1 delete
07:11:15 57.204097 60.114761 6.0679998397827 305 3.1600000858307 230.5 82 1 delete
07:11:06 57.204256 60.115057 4.5509996414185 304 1.2999999523163 166.89999389648 82 1 delete
07:10:59 57.204354 60.115014 4.5509996414185 304 2.7999999523163 188 82 1 delete
07:10:49 57.204448 60.115076 9.1019992828369 301 2.4500000476837 188.69999694824 82 1 delete
07:10:43 57.204558 60.115050 7.585000038147 299 2.4500000476837 165.39999389648 82 1 delete
07:10:40 57.204655 60.115002 6.0679998397827 301 1.9700000286102 165.10000610352 82 1 delete
07:10:30 57.204679 60.114541 4.5509996414185 296 3.1800000667572 80.199996948242 82 1 delete
07:10:25 57.204636 60.114343 6.0679998397827 295 1.7999999523163 163.10000610352 82 1 delete
07:10:21 57.204731 60.114280 6.0679998397827 292 3.6300001144409 197.80000305176 82 1 delete
07:10:18 57.204848 60.114356 4.5509996414185 297 3.7699999809265 205 82 1 delete
07:10:15 57.204935 60.114429 4.5509996414185 297 2.8900001049042 201.5 82 1 delete
07:10:10 57.205048 60.114421 4.5509996414185 298 1.9099999666214 157.5 82 1 delete
07:10:03 57.205100 60.114282 4.5509996414185 296 1.8300000429153 105.59999847412 82 1 delete
07:09:59 57.205135 60.114121 4.5509996414185 295 3.1700000762939 117.19999694824 82 1 delete
07:09:55 57.205151 60.113929 4.5509996414185 294 2.7400000095367 81.5 82 1 delete
07:09:52 57.205191 60.113779 4.5509996414185 294 3.1700000762939 125.30000305176 82 1 delete
07:09:48 57.205235 60.113618 4.5509996414185 293 2.960000038147 115.69999694824 82 1 delete
07:09:44 57.205279 60.113444 4.5509996414185 294 2.9300000667572 125 82 1 delete
07:09:39 57.205339 60.113284 4.5509996414185 293 3.1199998855591 131.60000610352 82 1 delete
07:09:35 57.205424 60.113148 4.5509996414185 294 2.5299999713898 138.39999389648 82 1 delete
07:09:31 57.205482 60.113006 4.5509996414185 292 2.7999999523163 143.89999389648 82 1 delete